Embudo, NM (87531)

7:54 PM MDT on September 23, 2014 (GMT -0600)
Velarde | Change Station
CLOSE
Current Station
Personal Weather Station
Location: Velarde, NM
Elevation: 5781 ft
Nearby Weather Stations

Elev 5781 ft 36.16 °N, 105.97 °W | Updated 3 minutes ago

Mostly Cloudy
Mostly Cloudy
76.5 °F
Feels Like 77 °F
N
1.0
Wind Variable Wind from West
Gusts 2.0 mph

Today
High -- | Low -- °F
--% Chance of Precip.
Yesterday
High -- | Low -- °F
Precip. -- in
6:52 AM 6:59 PM
Waning Crescent, 0% visible
Pressure 30.29 in
Visibility 10.0 miles
Clouds Scattered Clouds 8000 ft
Heat Index 77 °F
Dew Point 40 °F
Humidity 27%
Rainfall 0.00 in
Snow Depth 0 in , 0 in , 0 in
UV 0 out of 12
Pollen 6.50 out of 12
Air Quality Not available.
Flu Activity Not available.
METAR KLAM 240135Z AUTO 28006KT 10SM SCT080 21/02 A3029 RMK AO2 T02110021

More Conditions Fewer Conditions

Pressure 30.29 in
Visibility 10.0 miles
Clouds Scattered Clouds 8000 ft
Heat Index 77 °F
Dew Point 40 °F
Humidity 27%
Rainfall 0.00 in
Snow Depth 0 in , 0 in , 0 in
UV 0 out of 12
Pollen 6.50 out of 12
Air Quality Not available.
Flu Activity Not available.
METAR KLAM 240135Z AUTO 28006KT 10SM SCT080 21/02 A3029 RMK AO2 T02110021

More Conditions Fewer Conditions

10-Day Weather Forecast

Almanac

Astronomy

Sep. 23, 2014 Rise Set
Actual Time 6:52 AM MDT 6:59 PM MDT
Civil Twilight 6:27 AM MDT 7:24 PM MDT
Nautical Twilight 5:57 AM MDT 7:54 PM MDT
Astronomical Twilight 5:26 AM MDT 8:24 PM MDT
Moon 6:19 AM MDT (9/23) 6:40 PM MDT (9/23)
Length of Visible Light 12h 57m
Length of Day
12h 06m
Tomorrow will be 2m 18s shorter.
Waning Crescent, 0% of the Moon is Illuminated
Today
Waning Crescent
Sep 24
New
Oct 1
First Quarter
Oct 8
Full
Oct 15
Last Quarter

Today's Extremes

State Highs State Lows

Community

WunderPhotos

Upload Photos

1,755,844 photos uploaded!

Nearby

Snow Depth

Station Depth Elevation
Red River Pass #2 0 in 9850 ft
North Costilla 0 in 10600 ft
Signal Peak 0 in 8360 ft
Gallegos Peak 0 in 9800 ft
Tolby 0 in 10180 ft

Earthquake Activity

City Distance Mag. Time & Date
No recent earthquake activity has been reported nearby.
Minimum magnitude displayed is 2.5.

Coastal Water Temperatures

Place Temperature
No Stations Reporting

Nearby Weather Stations